sensor_id;sensor_type;location;lat;lon;timestamp;P1;durP1;ratioP1;P2;durP2;ratioP2
37593;SDS011;23441;50.856;6.076;2023-05-29T00:00:47;10.63;;;4.43;;
37593;SDS011;23441;50.856;6.076;2023-05-29T00:03:13;11.40;;;5.10;;
37593;SDS011;23441;50.856;6.076;2023-05-29T00:05:38;13.43;;;4.90;;
37593;SDS011;23441;50.856;6.076;2023-05-29T00:08:04;9.85;;;4.68;;
37593;SDS011;23441;50.856;6.076;2023-05-29T00:10:31;8.57;;;5.03;;
37593;SDS011;23441;50.856;6.076;2023-05-29T00:12:57;10.38;;;4.80;;
37593;SDS011;23441;50.856;6.076;2023-05-29T00:15:23;12.20;;;5.07;;
37593;SDS011;23441;50.856;6.076;2023-05-29T00:17:48;16.38;;;5.13;;
37593;SDS011;23441;50.856;6.076;2023-05-29T00:20:14;11.65;;;4.85;;
37593;SDS011;23441;50.856;6.076;2023-05-29T00:22:40;13.80;;;4.95;;
37593;SDS011;23441;50.856;6.076;2023-05-29T00:25:07;10.75;;;4.70;;
37593;SDS011;23441;50.856;6.076;2023-05-29T00:27:34;10.88;;;4.63;;
37593;SDS011;23441;50.856;6.076;2023-05-29T00:30:00;10.02;;;5.15;;
37593;SDS011;23441;50.856;6.076;2023-05-29T00:32:26;8.80;;;4.80;;
37593;SDS011;23441;50.856;6.076;2023-05-29T00:34:52;8.85;;;4.97;;
37593;SDS011;23441;50.856;6.076;2023-05-29T00:37:18;10.85;;;4.40;;
37593;SDS011;23441;50.856;6.076;2023-05-29T00:39:46;9.55;;;4.90;;
37593;SDS011;23441;50.856;6.076;2023-05-29T00:42:15;11.45;;;4.95;;
37593;SDS011;23441;50.856;6.076;2023-05-29T00:44:41;10.90;;;4.93;;
37593;SDS011;23441;50.856;6.076;2023-05-29T00:47:07;10.00;;;4.70;;
37593;SDS011;23441;50.856;6.076;2023-05-29T00:49:33;13.15;;;4.93;;
37593;SDS011;23441;50.856;6.076;2023-05-29T00:52:01;13.23;;;4.65;;
37593;SDS011;23441;50.856;6.076;2023-05-29T00:54:28;7.88;;;4.82;;
37593;SDS011;23441;50.856;6.076;2023-05-29T00:56:55;11.98;;;5.03;;
37593;SDS011;23441;50.856;6.076;2023-05-29T00:59:28;10.23;;;4.80;;
37593;SDS011;23441;50.856;6.076;2023-05-29T01:01:55;7.25;;;4.25;;
37593;SDS011;23441;50.856;6.076;2023-05-29T01:04:23;7.82;;;4.60;;
37593;SDS011;23441;50.856;6.076;2023-05-29T01:06:51;8.75;;;4.38;;
37593;SDS011;23441;50.856;6.076;2023-05-29T01:09:17;7.28;;;4.47;;
37593;SDS011;23441;50.856;6.076;2023-05-29T01:14:17;7.72;;;4.70;;
37593;SDS011;23441;50.856;6.076;2023-05-29T01:17:12;11.23;;;4.45;;
37593;SDS011;23441;50.856;6.076;2023-05-29T01:22:25;7.10;;;4.82;;
37593;SDS011;23441;50.856;6.076;2023-05-29T01:28:12;11.38;;;5.93;;
37593;SDS011;23441;50.856;6.076;2023-05-29T01:30:41;8.55;;;4.90;;
37593;SDS011;23441;50.856;6.076;2023-05-29T01:36:29;11.02;;;5.05;;
37593;SDS011;23441;50.856;6.076;2023-05-29T01:38:56;9.63;;;4.57;;
37593;SDS011;23441;50.856;6.076;2023-05-29T01:41:23;9.77;;;5.10;;
37593;SDS011;23441;50.856;6.076;2023-05-29T01:43:50;7.75;;;5.05;;
37593;SDS011;23441;50.856;6.076;2023-05-29T01:46:16;9.88;;;4.97;;
37593;SDS011;23441;50.856;6.076;2023-05-29T01:48:43;9.57;;;5.50;;
37593;SDS011;23441;50.856;6.076;2023-05-29T01:51:10;11.88;;;6.15;;
37593;SDS011;23441;50.856;6.076;2023-05-29T01:53:37;13.77;;;5.43;;
37593;SDS011;23441;50.856;6.076;2023-05-29T01:56:06;11.25;;;5.30;;
37593;SDS011;23441;50.856;6.076;2023-05-29T01:58:33;8.50;;;5.25;;
37593;SDS011;23441;50.856;6.076;2023-05-29T02:01:01;8.05;;;5.05;;
37593;SDS011;23441;50.856;6.076;2023-05-29T02:03:29;9.95;;;5.32;;
37593;SDS011;23441;50.856;6.076;2023-05-29T02:05:58;11.18;;;5.03;;
37593;SDS011;23441;50.856;6.076;2023-05-29T02:08:25;9.25;;;5.15;;
37593;SDS011;23441;50.856;6.076;2023-05-29T02:10:51;9.55;;;5.55;;
37593;SDS011;23441;50.856;6.076;2023-05-29T02:13:17;7.97;;;4.90;;
37593;SDS011;23441;50.856;6.076;2023-05-29T02:15:43;8.60;;;5.05;;
37593;SDS011;23441;50.856;6.076;2023-05-29T02:18:10;10.25;;;5.30;;
37593;SDS011;23441;50.856;6.076;2023-05-29T02:20:39;8.07;;;5.05;;
37593;SDS011;23441;50.856;6.076;2023-05-29T02:23:04;11.95;;;5.57;;
37593;SDS011;23441;50.856;6.076;2023-05-29T02:25:30;11.88;;;5.13;;
37593;SDS011;23441;50.856;6.076;2023-05-29T02:27:56;10.00;;;4.90;;
37593;SDS011;23441;50.856;6.076;2023-05-29T02:30:21;10.00;;;5.30;;
37593;SDS011;23441;50.856;6.076;2023-05-29T02:32:47;8.20;;;5.30;;
37593;SDS011;23441;50.856;6.076;2023-05-29T02:35:13;10.93;;;4.85;;
37593;SDS011;23441;50.856;6.076;2023-05-29T02:37:40;9.52;;;5.28;;
37593;SDS011;23441;50.856;6.076;2023-05-29T02:40:06;11.15;;;5.28;;
37593;SDS011;23441;50.856;6.076;2023-05-29T02:42:33;12.23;;;6.03;;
37593;SDS011;23441;50.856;6.076;2023-05-29T02:44:59;13.15;;;6.38;;
37593;SDS011;23441;50.856;6.076;2023-05-29T02:47:25;12.02;;;6.63;;
37593;SDS011;23441;50.856;6.076;2023-05-29T02:49:51;15.93;;;7.35;;
37593;SDS011;23441;50.856;6.076;2023-05-29T02:52:16;12.15;;;6.93;;
37593;SDS011;23441;50.856;6.076;2023-05-29T02:54:42;13.07;;;7.22;;
37593;SDS011;23441;50.856;6.076;2023-05-29T02:57:08;13.95;;;7.05;;
37593;SDS011;23441;50.856;6.076;2023-05-29T02:59:34;14.95;;;7.20;;
37593;SDS011;23441;50.856;6.076;2023-05-29T03:02:00;15.48;;;6.70;;
37593;SDS011;23441;50.856;6.076;2023-05-29T03:04:26;12.18;;;7.13;;
37593;SDS011;23441;50.856;6.076;2023-05-29T03:06:52;17.60;;;7.18;;
37593;SDS011;23441;50.856;6.076;2023-05-29T03:09:19;12.27;;;7.25;;
37593;SDS011;23441;50.856;6.076;2023-05-29T03:11:45;17.65;;;7.13;;
37593;SDS011;23441;50.856;6.076;2023-05-29T03:14:12;16.58;;;7.45;;
37593;SDS011;23441;50.856;6.076;2023-05-29T03:16:38;13.13;;;7.20;;
37593;SDS011;23441;50.856;6.076;2023-05-29T03:19:05;17.35;;;8.07;;
37593;SDS011;23441;50.856;6.076;2023-05-29T03:21:32;16.42;;;8.10;;
37593;SDS011;23441;50.856;6.076;2023-05-29T03:23:58;15.95;;;7.32;;
37593;SDS011;23441;50.856;6.076;2023-05-29T03:26:25;15.65;;;7.28;;
37593;SDS011;23441;50.856;6.076;2023-05-29T03:28:51;15.27;;;7.30;;
37593;SDS011;23441;50.856;6.076;2023-05-29T03:31:17;14.05;;;7.13;;
37593;SDS011;23441;50.856;6.076;2023-05-29T03:33:42;12.18;;;6.55;;
37593;SDS011;23441;50.856;6.076;2023-05-29T03:36:08;16.00;;;6.95;;
37593;SDS011;23441;50.856;6.076;2023-05-29T03:38:34;14.07;;;6.30;;
37593;SDS011;23441;50.856;6.076;2023-05-29T03:40:59;14.73;;;7.10;;
37593;SDS011;23441;50.856;6.076;2023-05-29T03:43:25;16.25;;;6.35;;
37593;SDS011;23441;50.856;6.076;2023-05-29T03:45:51;19.38;;;6.57;;
37593;SDS011;23441;50.856;6.076;2023-05-29T03:48:16;14.15;;;6.28;;
37593;SDS011;23441;50.856;6.076;2023-05-29T03:50:42;16.63;;;6.47;;
37593;SDS011;23441;50.856;6.076;2023-05-29T03:53:07;16.13;;;5.90;;
37593;SDS011;23441;50.856;6.076;2023-05-29T03:55:33;12.68;;;5.57;;
37593;SDS011;23441;50.856;6.076;2023-05-29T03:57:59;14.05;;;5.97;;
37593;SDS011;23441;50.856;6.076;2023-05-29T04:00:24;11.10;;;5.13;;
37593;SDS011;23441;50.856;6.076;2023-05-29T04:02:50;17.55;;;5.70;;
37593;SDS011;23441;50.856;6.076;2023-05-29T04:05:16;13.55;;;5.22;;
37593;SDS011;23441;50.856;6.076;2023-05-29T04:07:42;12.13;;;6.05;;
37593;SDS011;23441;50.856;6.076;2023-05-29T04:10:07;17.05;;;5.50;;
37593;SDS011;23441;50.856;6.076;2023-05-29T04:12:33;11.02;;;5.28;;
37593;SDS011;23441;50.856;6.076;2023-05-29T04:15:00;15.98;;;5.32;;
37593;SDS011;23441;50.856;6.076;2023-05-29T04:17:25;14.70;;;5.22;;
37593;SDS011;23441;50.856;6.076;2023-05-29T04:19:51;17.70;;;5.82;;
37593;SDS011;23441;50.856;6.076;2023-05-29T04:22:17;16.05;;;5.60;;
37593;SDS011;23441;50.856;6.076;2023-05-29T04:24:42;15.80;;;5.53;;
37593;SDS011;23441;50.856;6.076;2023-05-29T04:27:08;11.75;;;5.10;;
37593;SDS011;23441;50.856;6.076;2023-05-29T04:29:38;20.88;;;5.22;;
37593;SDS011;23441;50.856;6.076;2023-05-29T04:32:05;16.20;;;5.38;;
37593;SDS011;23441;50.856;6.076;2023-05-29T04:34:33;11.52;;;5.07;;
37593;SDS011;23441;50.856;6.076;2023-05-29T04:36:59;17.88;;;4.88;;
37593;SDS011;23441;50.856;6.076;2023-05-29T04:39:25;17.88;;;5.20;;
37593;SDS011;23441;50.856;6.076;2023-05-29T04:41:50;13.55;;;4.60;;
37593;SDS011;23441;50.856;6.076;2023-05-29T04:44:16;12.30;;;4.82;;
37593;SDS011;23441;50.856;6.076;2023-05-29T04:46:43;14.50;;;4.60;;
37593;SDS011;23441;50.856;6.076;2023-05-29T04:49:09;13.27;;;4.60;;
37593;SDS011;23441;50.856;6.076;2023-05-29T04:51:38;12.35;;;4.90;;
37593;SDS011;23441;50.856;6.076;2023-05-29T04:54:06;17.42;;;4.97;;
37593;SDS011;23441;50.856;6.076;2023-05-29T04:56:32;10.45;;;4.63;;
37593;SDS011;23441;50.856;6.076;2023-05-29T04:58:58;14.35;;;4.32;;
37593;SDS011;23441;50.856;6.076;2023-05-29T05:01:24;15.18;;;4.43;;
37593;SDS011;23441;50.856;6.076;2023-05-29T05:03:50;12.05;;;3.65;;
37593;SDS011;23441;50.856;6.076;2023-05-29T05:06:21;13.98;;;3.95;;
37593;SDS011;23441;50.856;6.076;2023-05-29T05:08:47;12.02;;;3.67;;
37593;SDS011;23441;50.856;6.076;2023-05-29T05:11:13;11.70;;;3.97;;
37593;SDS011;23441;50.856;6.076;2023-05-29T05:13:39;13.05;;;4.28;;
37593;SDS011;23441;50.856;6.076;2023-05-29T05:16:05;14.45;;;4.68;;
37593;SDS011;23441;50.856;6.076;2023-05-29T05:18:31;12.13;;;4.80;;
37593;SDS011;23441;50.856;6.076;2023-05-29T05:20:57;21.55;;;5.13;;
37593;SDS011;23441;50.856;6.076;2023-05-29T05:23:22;12.25;;;4.30;;
37593;SDS011;23441;50.856;6.076;2023-05-29T05:25:48;10.23;;;3.60;;
37593;SDS011;23441;50.856;6.076;2023-05-29T05:28:14;18.20;;;4.40;;
37593;SDS011;23441;50.856;6.076;2023-05-29T05:30:39;16.50;;;5.05;;
37593;SDS011;23441;50.856;6.076;2023-05-29T05:33:05;13.75;;;3.97;;
37593;SDS011;23441;50.856;6.076;2023-05-29T05:35:31;12.05;;;3.97;;
37593;SDS011;23441;50.856;6.076;2023-05-29T05:37:56;14.48;;;4.28;;
37593;SDS011;23441;50.856;6.076;2023-05-29T05:40:23;13.50;;;4.20;;
37593;SDS011;23441;50.856;6.076;2023-05-29T05:42:50;14.73;;;4.15;;
37593;SDS011;23441;50.856;6.076;2023-05-29T05:45:15;11.73;;;3.75;;
37593;SDS011;23441;50.856;6.076;2023-05-29T05:47:41;13.30;;;3.60;;
37593;SDS011;23441;50.856;6.076;2023-05-29T05:50:07;10.68;;;3.85;;
37593;SDS011;23441;50.856;6.076;2023-05-29T05:52:33;14.27;;;4.05;;
37593;SDS011;23441;50.856;6.076;2023-05-29T05:54:59;16.20;;;4.30;;
37593;SDS011;23441;50.856;6.076;2023-05-29T05:57:24;12.40;;;3.88;;
37593;SDS011;23441;50.856;6.076;2023-05-29T05:59:50;16.00;;;4.45;;
37593;SDS011;23441;50.856;6.076;2023-05-29T06:02:16;15.73;;;4.03;;
37593;SDS011;23441;50.856;6.076;2023-05-29T06:04:42;11.60;;;4.20;;
37593;SDS011;23441;50.856;6.076;2023-05-29T06:07:08;19.20;;;4.13;;
37593;SDS011;23441;50.856;6.076;2023-05-29T06:09:34;19.35;;;4.57;;
37593;SDS011;23441;50.856;6.076;2023-05-29T06:11:59;14.82;;;4.10;;
37593;SDS011;23441;50.856;6.076;2023-05-29T06:14:25;11.70;;;3.80;;
37593;SDS011;23441;50.856;6.076;2023-05-29T06:16:51;12.80;;;3.50;;
37593;SDS011;23441;50.856;6.076;2023-05-29T06:19:18;11.55;;;3.65;;
37593;SDS011;23441;50.856;6.076;2023-05-29T06:21:44;14.10;;;3.58;;
37593;SDS011;23441;50.856;6.076;2023-05-29T06:24:10;14.80;;;3.92;;
37593;SDS011;23441;50.856;6.076;2023-05-29T06:26:36;13.90;;;4.30;;
37593;SDS011;23441;50.856;6.076;2023-05-29T06:29:02;17.27;;;4.53;;
37593;SDS011;23441;50.856;6.076;2023-05-29T06:31:28;14.70;;;4.00;;
37593;SDS011;23441;50.856;6.076;2023-05-29T06:33:54;13.25;;;3.83;;
37593;SDS011;23441;50.856;6.076;2023-05-29T06:36:19;15.45;;;4.40;;
37593;SDS011;23441;50.856;6.076;2023-05-29T06:38:49;19.88;;;4.20;;
37593;SDS011;23441;50.856;6.076;2023-05-29T06:41:15;11.43;;;3.85;;
37593;SDS011;23441;50.856;6.076;2023-05-29T06:43:41;11.85;;;3.58;;
37593;SDS011;23441;50.856;6.076;2023-05-29T06:46:07;11.07;;;3.78;;
37593;SDS011;23441;50.856;6.076;2023-05-29T06:48:34;10.85;;;3.75;;
37593;SDS011;23441;50.856;6.076;2023-05-29T06:51:00;16.10;;;3.92;;
37593;SDS011;23441;50.856;6.076;2023-05-29T06:53:40;14.93;;;3.78;;
37593;SDS011;23441;50.856;6.076;2023-05-29T06:56:06;12.70;;;3.38;;
37593;SDS011;23441;50.856;6.076;2023-05-29T06:58:32;12.48;;;3.28;;
37593;SDS011;23441;50.856;6.076;2023-05-29T07:00:58;13.30;;;3.67;;
37593;SDS011;23441;50.856;6.076;2023-05-29T07:03:25;12.85;;;3.80;;
37593;SDS011;23441;50.856;6.076;2023-05-29T07:05:51;13.60;;;4.45;;
37593;SDS011;23441;50.856;6.076;2023-05-29T07:08:17;11.75;;;3.83;;
37593;SDS011;23441;50.856;6.076;2023-05-29T07:10:43;11.48;;;3.90;;
37593;SDS011;23441;50.856;6.076;2023-05-29T07:13:09;13.52;;;3.75;;
37593;SDS011;23441;50.856;6.076;2023-05-29T07:15:34;11.23;;;3.92;;
37593;SDS011;23441;50.856;6.076;2023-05-29T07:18:02;11.55;;;4.18;;
37593;SDS011;23441;50.856;6.076;2023-05-29T07:20:27;11.73;;;3.70;;
37593;SDS011;23441;50.856;6.076;2023-05-29T07:22:53;13.10;;;3.95;;
37593;SDS011;23441;50.856;6.076;2023-05-29T07:25:18;12.35;;;3.88;;
37593;SDS011;23441;50.856;6.076;2023-05-29T07:27:44;11.70;;;3.60;;
37593;SDS011;23441;50.856;6.076;2023-05-29T07:30:10;9.18;;;3.58;;
37593;SDS011;23441;50.856;6.076;2023-05-29T07:32:36;10.90;;;3.33;;
37593;SDS011;23441;50.856;6.076;2023-05-29T07:35:02;11.27;;;3.30;;
37593;SDS011;23441;50.856;6.076;2023-05-29T07:37:27;11.73;;;3.45;;
37593;SDS011;23441;50.856;6.076;2023-05-29T07:39:55;12.23;;;3.72;;
37593;SDS011;23441;50.856;6.076;2023-05-29T07:42:20;9.68;;;3.65;;
37593;SDS011;23441;50.856;6.076;2023-05-29T07:44:46;11.68;;;3.65;;
37593;SDS011;23441;50.856;6.076;2023-05-29T07:47:13;13.20;;;3.92;;
37593;SDS011;23441;50.856;6.076;2023-05-29T07:49:39;12.30;;;3.78;;
37593;SDS011;23441;50.856;6.076;2023-05-29T07:52:04;14.30;;;4.25;;
37593;SDS011;23441;50.856;6.076;2023-05-29T07:54:31;16.40;;;4.10;;
37593;SDS011;23441;50.856;6.076;2023-05-29T07:57:00;11.57;;;3.88;;
37593;SDS011;23441;50.856;6.076;2023-05-29T07:59:34;17.00;;;4.18;;
37593;SDS011;23441;50.856;6.076;2023-05-29T08:02:05;14.25;;;4.00;;
37593;SDS011;23441;50.856;6.076;2023-05-29T08:04:31;14.52;;;4.22;;
37593;SDS011;23441;50.856;6.076;2023-05-29T08:06:57;16.20;;;4.57;;
37593;SDS011;23441;50.856;6.076;2023-05-29T08:09:26;12.07;;;4.05;;
37593;SDS011;23441;50.856;6.076;2023-05-29T08:11:52;12.13;;;4.20;;
37593;SDS011;23441;50.856;6.076;2023-05-29T08:14:17;14.95;;;3.97;;
37593;SDS011;23441;50.856;6.076;2023-05-29T08:16:43;12.07;;;4.43;;
37593;SDS011;23441;50.856;6.076;2023-05-29T08:19:09;13.07;;;4.20;;
37593;SDS011;23441;50.856;6.076;2023-05-29T08:21:34;13.43;;;3.90;;
37593;SDS011;23441;50.856;6.076;2023-05-29T08:24:01;18.10;;;4.80;;
37593;SDS011;23441;50.856;6.076;2023-05-29T08:26:30;15.98;;;4.55;;
37593;SDS011;23441;50.856;6.076;2023-05-29T08:28:56;14.85;;;4.20;;
37593;SDS011;23441;50.856;6.076;2023-05-29T08:31:22;15.05;;;4.10;;
37593;SDS011;23441;50.856;6.076;2023-05-29T08:33:50;14.70;;;3.78;;
37593;SDS011;23441;50.856;6.076;2023-05-29T08:36:17;18.23;;;4.43;;
37593;SDS011;23441;50.856;6.076;2023-05-29T08:38:43;14.82;;;3.88;;
37593;SDS011;23441;50.856;6.076;2023-05-29T08:41:08;16.00;;;4.20;;
37593;SDS011;23441;50.856;6.076;2023-05-29T08:43:42;12.93;;;5.07;;
37593;SDS011;23441;50.856;6.076;2023-05-29T08:46:09;16.20;;;4.18;;
37593;SDS011;23441;50.856;6.076;2023-05-29T08:48:36;13.20;;;4.22;;
37593;SDS011;23441;50.856;6.076;2023-05-29T08:51:05;12.63;;;4.35;;
37593;SDS011;23441;50.856;6.076;2023-05-29T08:53:34;13.15;;;4.32;;
37593;SDS011;23441;50.856;6.076;2023-05-29T08:56:00;15.02;;;4.38;;
37593;SDS011;23441;50.856;6.076;2023-05-29T08:58:27;15.50;;;4.10;;
37593;SDS011;23441;50.856;6.076;2023-05-29T09:00:53;15.10;;;4.05;;
37593;SDS011;23441;50.856;6.076;2023-05-29T09:03:20;12.15;;;4.47;;
37593;SDS011;23441;50.856;6.076;2023-05-29T09:05:47;17.92;;;4.65;;
37593;SDS011;23441;50.856;6.076;2023-05-29T09:08:13;11.13;;;4.07;;
37593;SDS011;23441;50.856;6.076;2023-05-29T09:10:43;16.73;;;4.50;;
37593;SDS011;23441;50.856;6.076;2023-05-29T09:13:10;17.02;;;5.00;;
37593;SDS011;23441;50.856;6.076;2023-05-29T09:15:37;12.52;;;4.35;;
37593;SDS011;23441;50.856;6.076;2023-05-29T09:18:05;18.48;;;4.95;;
37593;SDS011;23441;50.856;6.076;2023-05-29T09:20:31;12.25;;;4.10;;
37593;SDS011;23441;50.856;6.076;2023-05-29T09:22:57;19.40;;;4.53;;
37593;SDS011;23441;50.856;6.076;2023-05-29T09:25:29;17.92;;;5.13;;
37593;SDS011;23441;50.856;6.076;2023-05-29T09:28:00;14.25;;;4.50;;
37593;SDS011;23441;50.856;6.076;2023-05-29T09:33:10;12.38;;;4.38;;
37593;SDS011;23441;50.856;6.076;2023-05-29T09:38:05;13.15;;;4.57;;
37593;SDS011;23441;50.856;6.076;2023-05-29T09:40:32;15.27;;;4.43;;
37593;SDS011;23441;50.856;6.076;2023-05-29T09:43:02;14.45;;;4.70;;
37593;SDS011;23441;50.856;6.076;2023-05-29T09:45:32;15.30;;;4.22;;
37593;SDS011;23441;50.856;6.076;2023-05-29T09:48:01;18.00;;;5.18;;
37593;SDS011;23441;50.856;6.076;2023-05-29T09:50:27;13.15;;;4.35;;
37593;SDS011;23441;50.856;6.076;2023-05-29T09:52:53;13.10;;;3.80;;
37593;SDS011;23441;50.856;6.076;2023-05-29T09:55:22;9.90;;;4.18;;
37593;SDS011;23441;50.856;6.076;2023-05-29T09:57:53;20.42;;;4.47;;
37593;SDS011;23441;50.856;6.076;2023-05-29T10:00:20;10.18;;;3.63;;
37593;SDS011;23441;50.856;6.076;2023-05-29T10:02:47;14.40;;;4.72;;
37593;SDS011;23441;50.856;6.076;2023-05-29T10:05:13;12.18;;;4.18;;
37593;SDS011;23441;50.856;6.076;2023-05-29T10:07:42;14.13;;;4.30;;
37593;SDS011;23441;50.856;6.076;2023-05-29T10:10:13;14.93;;;5.07;;
37593;SDS011;23441;50.856;6.076;2023-05-29T10:12:41;12.02;;;4.05;;
37593;SDS011;23441;50.856;6.076;2023-05-29T10:15:11;18.70;;;4.00;;
37593;SDS011;23441;50.856;6.076;2023-05-29T10:17:39;16.73;;;4.53;;
37593;SDS011;23441;50.856;6.076;2023-05-29T10:20:16;15.80;;;3.95;;
37593;SDS011;23441;50.856;6.076;2023-05-29T10:22:45;19.10;;;4.50;;
37593;SDS011;23441;50.856;6.076;2023-05-29T10:25:13;13.80;;;3.65;;
37593;SDS011;23441;50.856;6.076;2023-05-29T10:27:42;18.92;;;4.13;;
37593;SDS011;23441;50.856;6.076;2023-05-29T10:30:16;12.10;;;3.75;;
37593;SDS011;23441;50.856;6.076;2023-05-29T10:32:52;15.05;;;4.93;;
37593;SDS011;23441;50.856;6.076;2023-05-29T10:38:12;15.15;;;4.05;;
37593;SDS011;23441;50.856;6.076;2023-05-29T10:40:40;17.02;;;4.38;;
37593;SDS011;23441;50.856;6.076;2023-05-29T10:43:06;13.20;;;3.80;;
37593;SDS011;23441;50.856;6.076;2023-05-29T10:50:37;14.30;;;4.18;;
37593;SDS011;23441;50.856;6.076;2023-05-29T10:53:24;13.63;;;4.00;;
37593;SDS011;23441;50.856;6.076;2023-05-29T10:55:58;12.20;;;3.78;;
37593;SDS011;23441;50.856;6.076;2023-05-29T10:58:25;17.67;;;3.67;;
37593;SDS011;23441;50.856;6.076;2023-05-29T11:00:52;15.48;;;4.53;;
37593;SDS011;23441;50.856;6.076;2023-05-29T11:03:21;10.13;;;3.80;;
37593;SDS011;23441;50.856;6.076;2023-05-29T11:11:11;10.38;;;3.95;;
37593;SDS011;23441;50.856;6.076;2023-05-29T11:13:38;12.40;;;3.70;;
37593;SDS011;23441;50.856;6.076;2023-05-29T11:18:50;12.93;;;4.00;;
37593;SDS011;23441;50.856;6.076;2023-05-29T11:23:52;17.35;;;4.88;;
37593;SDS011;23441;50.856;6.076;2023-05-29T11:26:22;19.00;;;4.78;;
37593;SDS011;23441;50.856;6.076;2023-05-29T11:28:49;13.98;;;4.03;;
37593;SDS011;23441;50.856;6.076;2023-05-29T11:31:14;14.05;;;4.30;;
37593;SDS011;23441;50.856;6.076;2023-05-29T11:33:44;18.35;;;4.07;;
37593;SDS011;23441;50.856;6.076;2023-05-29T11:36:14;12.82;;;4.57;;
37593;SDS011;23441;50.856;6.076;2023-05-29T11:38:40;14.93;;;4.38;;
37593;SDS011;23441;50.856;6.076;2023-05-29T11:41:06;17.83;;;4.55;;
37593;SDS011;23441;50.856;6.076;2023-05-29T11:43:32;10.23;;;3.85;;
37593;SDS011;23441;50.856;6.076;2023-05-29T11:45:58;15.02;;;4.18;;
37593;SDS011;23441;50.856;6.076;2023-05-29T11:48:24;18.35;;;4.50;;
37593;SDS011;23441;50.856;6.076;2023-05-29T11:50:49;11.32;;;3.70;;
37593;SDS011;23441;50.856;6.076;2023-05-29T11:53:15;14.23;;;4.05;;
37593;SDS011;23441;50.856;6.076;2023-05-29T11:55:41;14.00;;;4.75;;
37593;SDS011;23441;50.856;6.076;2023-05-29T11:58:07;12.70;;;4.57;;
37593;SDS011;23441;50.856;6.076;2023-05-29T12:00:36;12.80;;;3.78;;
37593;SDS011;23441;50.856;6.076;2023-05-29T12:03:03;12.90;;;3.92;;
37593;SDS011;23441;50.856;6.076;2023-05-29T12:05:44;11.00;;;3.55;;
37593;SDS011;23441;50.856;6.076;2023-05-29T12:08:11;13.27;;;4.18;;
37593;SDS011;23441;50.856;6.076;2023-05-29T12:10:37;13.25;;;4.82;;
37593;SDS011;23441;50.856;6.076;2023-05-29T12:13:11;19.23;;;4.22;;
37593;SDS011;23441;50.856;6.076;2023-05-29T12:15:36;11.98;;;4.10;;
37593;SDS011;23441;50.856;6.076;2023-05-29T12:18:02;9.98;;;3.65;;
37593;SDS011;23441;50.856;6.076;2023-05-29T12:20:28;10.43;;;3.65;;
37593;SDS011;23441;50.856;6.076;2023-05-29T12:22:59;11.80;;;3.47;;
37593;SDS011;23441;50.856;6.076;2023-05-29T12:25:26;12.10;;;3.72;;
37593;SDS011;23441;50.856;6.076;2023-05-29T12:27:53;11.40;;;3.28;;
37593;SDS011;23441;50.856;6.076;2023-05-29T12:30:21;10.50;;;3.75;;
37593;SDS011;23441;50.856;6.076;2023-05-29T12:32:51;14.63;;;4.00;;
37593;SDS011;23441;50.856;6.076;2023-05-29T12:35:24;11.05;;;3.22;;
37593;SDS011;23441;50.856;6.076;2023-05-29T12:38:00;10.98;;;4.00;;
37593;SDS011;23441;50.856;6.076;2023-05-29T12:40:27;11.20;;;3.80;;
37593;SDS011;23441;50.856;6.076;2023-05-29T12:43:00;11.18;;;3.55;;
37593;SDS011;23441;50.856;6.076;2023-05-29T12:45:29;13.85;;;3.42;;
37593;SDS011;23441;50.856;6.076;2023-05-29T12:47:59;14.82;;;3.55;;
37593;SDS011;23441;50.856;6.076;2023-05-29T12:50:28;10.73;;;3.35;;
37593;SDS011;23441;50.856;6.076;2023-05-29T12:55:36;16.80;;;4.22;;
37593;SDS011;23441;50.856;6.076;2023-05-29T12:58:07;13.95;;;3.72;;
37593;SDS011;23441;50.856;6.076;2023-05-29T13:00:34;14.15;;;3.55;;
37593;SDS011;23441;50.856;6.076;2023-05-29T13:03:01;8.88;;;3.10;;
37593;SDS011;23441;50.856;6.076;2023-05-29T13:05:27;16.52;;;3.72;;
37593;SDS011;23441;50.856;6.076;2023-05-29T13:07:53;9.68;;;3.67;;
37593;SDS011;23441;50.856;6.076;2023-05-29T13:10:19;12.30;;;3.20;;
37593;SDS011;23441;50.856;6.076;2023-05-29T13:12:45;11.38;;;3.42;;
37593;SDS011;23441;50.856;6.076;2023-05-29T13:15:12;18.05;;;4.47;;
37593;SDS011;23441;50.856;6.076;2023-05-29T13:17:39;16.25;;;3.80;;
37593;SDS011;23441;50.856;6.076;2023-05-29T13:22:35;12.15;;;3.85;;
37593;SDS011;23441;50.856;6.076;2023-05-29T13:25:01;10.20;;;3.30;;
37593;SDS011;23441;50.856;6.076;2023-05-29T13:27:27;12.50;;;3.50;;
37593;SDS011;23441;50.856;6.076;2023-05-29T13:29:53;12.65;;;3.30;;
37593;SDS011;23441;50.856;6.076;2023-05-29T13:32:19;14.05;;;3.28;;
37593;SDS011;23441;50.856;6.076;2023-05-29T13:34:45;8.27;;;3.25;;
37593;SDS011;23441;50.856;6.076;2023-05-29T13:37:11;14.45;;;3.53;;
37593;SDS011;23441;50.856;6.076;2023-05-29T13:39:37;10.73;;;3.33;;
37593;SDS011;23441;50.856;6.076;2023-05-29T13:42:02;10.57;;;3.60;;
37593;SDS011;23441;50.856;6.076;2023-05-29T13:44:28;11.27;;;4.03;;
37593;SDS011;23441;50.856;6.076;2023-05-29T13:46:54;13.05;;;3.80;;
37593;SDS011;23441;50.856;6.076;2023-05-29T13:49:20;11.13;;;3.33;;
37593;SDS011;23441;50.856;6.076;2023-05-29T13:51:46;11.70;;;3.50;;
37593;SDS011;23441;50.856;6.076;2023-05-29T13:54:13;10.18;;;3.40;;
37593;SDS011;23441;50.856;6.076;2023-05-29T13:56:40;10.82;;;3.97;;
37593;SDS011;23441;50.856;6.076;2023-05-29T13:59:06;10.18;;;3.92;;
37593;SDS011;23441;50.856;6.076;2023-05-29T14:01:32;10.30;;;4.13;;
37593;SDS011;23441;50.856;6.076;2023-05-29T14:03:58;8.85;;;4.20;;
37593;SDS011;23441;50.856;6.076;2023-05-29T14:06:24;14.13;;;3.63;;
37593;SDS011;23441;50.856;6.076;2023-05-29T14:08:50;16.13;;;3.85;;
37593;SDS011;23441;50.856;6.076;2023-05-29T14:11:16;11.98;;;3.40;;
37593;SDS011;23441;50.856;6.076;2023-05-29T14:13:42;10.07;;;3.78;;
37593;SDS011;23441;50.856;6.076;2023-05-29T14:16:07;17.10;;;4.40;;
37593;SDS011;23441;50.856;6.076;2023-05-29T14:18:33;14.60;;;3.65;;
37593;SDS011;23441;50.856;6.076;2023-05-29T14:20:59;12.45;;;4.70;;
37593;SDS011;23441;50.856;6.076;2023-05-29T14:23:24;11.40;;;3.95;;
37593;SDS011;23441;50.856;6.076;2023-05-29T14:25:50;10.05;;;4.90;;
37593;SDS011;23441;50.856;6.076;2023-05-29T14:28:18;12.88;;;4.13;;
37593;SDS011;23441;50.856;6.076;2023-05-29T14:30:44;10.52;;;3.60;;
37593;SDS011;23441;50.856;6.076;2023-05-29T14:33:10;13.20;;;3.92;;
37593;SDS011;23441;50.856;6.076;2023-05-29T14:35:35;11.63;;;3.63;;
37593;SDS011;23441;50.856;6.076;2023-05-29T14:38:01;8.75;;;3.22;;
37593;SDS011;23441;50.856;6.076;2023-05-29T14:40:27;11.43;;;3.83;;
37593;SDS011;23441;50.856;6.076;2023-05-29T14:42:53;11.70;;;3.88;;
37593;SDS011;23441;50.856;6.076;2023-05-29T14:45:19;10.55;;;3.08;;
37593;SDS011;23441;50.856;6.076;2023-05-29T14:47:44;10.82;;;3.08;;
37593;SDS011;23441;50.856;6.076;2023-05-29T14:50:10;18.63;;;3.83;;
37593;SDS011;23441;50.856;6.076;2023-05-29T14:52:36;11.68;;;3.83;;
37593;SDS011;23441;50.856;6.076;2023-05-29T14:55:03;7.80;;;2.85;;
37593;SDS011;23441;50.856;6.076;2023-05-29T14:57:30;13.95;;;3.55;;
37593;SDS011;23441;50.856;6.076;2023-05-29T14:59:58;12.68;;;3.35;;
37593;SDS011;23441;50.856;6.076;2023-05-29T15:02:24;12.68;;;3.60;;
37593;SDS011;23441;50.856;6.076;2023-05-29T15:04:50;13.25;;;3.58;;
37593;SDS011;23441;50.856;6.076;2023-05-29T15:07:16;15.75;;;4.25;;
37593;SDS011;23441;50.856;6.076;2023-05-29T15:09:42;10.35;;;3.42;;
37593;SDS011;23441;50.856;6.076;2023-05-29T15:12:08;7.95;;;3.20;;
37593;SDS011;23441;50.856;6.076;2023-05-29T15:14:34;11.95;;;3.42;;